createdAt,value
2019-04-29T08:02:40.777Z,10.77
2019-04-29T08:04:41.199Z,11.01
2019-04-29T08:06:43.117Z,11.02
2019-04-29T08:08:54.328Z,11.51
2019-04-29T08:10:54.035Z,11.92
2019-04-29T08:12:43.295Z,11.90
2019-04-29T08:14:43.816Z,12.09
2019-04-29T08:16:44.303Z,12.12
2019-04-29T08:18:44.803Z,12.14
2019-04-29T08:20:45.312Z,12.07
2019-04-29T08:22:45.866Z,11.81
2019-04-29T08:24:50.457Z,11.64
2019-04-29T08:26:47.642Z,11.56
2019-04-29T08:28:47.409Z,11.10
2019-04-29T08:30:47.952Z,11.21
2019-04-29T08:32:48.419Z,10.85
2019-04-29T08:34:48.957Z,10.88
2019-04-29T08:36:49.414Z,10.65
2019-04-29T08:38:49.957Z,10.55
2019-04-29T08:40:51.681Z,10.50
2019-04-29T08:42:51.002Z,10.72
2019-04-29T08:44:54.696Z,10.30
2019-04-29T08:46:52.861Z,10.20
2019-04-29T08:48:52.704Z,10.24
2019-04-29T08:50:53.308Z,10.10
2019-04-29T08:52:53.793Z,10.22
2019-04-29T08:54:55.487Z,10.16
2019-04-29T08:57:02.772Z,10.09
2019-04-29T08:58:55.698Z,10.39
2019-04-29T09:00:57.588Z,10.16
2019-04-29T09:02:56.887Z,10.37
2019-04-29T09:04:57.418Z,10.42
2019-04-29T09:07:11.633Z,10.38
2019-04-29T09:08:59.639Z,10.38
2019-04-29T09:10:59.174Z,10.41
2019-04-29T09:12:59.620Z,10.82
2019-04-29T09:15:00.188Z,11.65
2019-04-29T09:17:00.752Z,11.66
2019-04-29T09:19:01.218Z,10.74
2019-04-29T09:21:01.723Z,11.27
2019-04-29T11:25:40.823Z,11.34
2019-04-29T11:27:41.254Z,11.18
2019-04-29T11:29:41.786Z,11.20
2019-04-29T11:31:42.246Z,11.28
2019-04-29T11:33:42.748Z,11.31
2019-04-29T11:35:43.331Z,11.29
2019-04-29T11:37:43.890Z,11.38
2019-04-29T11:39:46.231Z,11.23
2019-04-29T11:41:44.810Z,11.17
2019-04-29T11:43:46.745Z,11.27
2019-04-29T11:45:46.103Z,11.35
2019-04-29T11:47:46.589Z,11.58
2019-04-29T13:07:17.122Z,11.30
2019-04-29T13:09:18.217Z,11.37
2019-04-29T13:11:19.099Z,11.13
2019-04-29T13:13:20.124Z,11.23
2019-04-29T13:15:19.153Z,11.16
2019-04-29T13:17:19.649Z,11.08
2019-04-29T13:19:20.684Z,11.03
2019-04-29T13:21:20.566Z,11.00
2019-04-29T13:23:33.654Z,11.10
2019-04-29T13:25:21.718Z,11.12
2019-04-29T13:27:25.394Z,11.17
2019-04-29T13:29:27.292Z,11.20
2019-04-29T13:31:37.403Z,11.14
2019-04-29T13:33:23.683Z,11.20
2019-04-29T13:35:24.149Z,11.13
2019-04-29T13:37:24.722Z,11.14
2019-04-29T13:39:39.193Z,11.14
2019-04-29T13:41:26.012Z,11.15
2019-04-29T13:43:27.206Z,11.19
2019-04-29T13:45:26.679Z,11.19
2019-04-29T13:47:30.729Z,11.09
2019-04-29T13:49:27.672Z,11.06
2019-04-29T13:51:35.737Z,11.18
2019-04-29T13:53:28.686Z,11.08
2019-04-29T13:55:47.215Z,11.12
2019-04-29T13:57:29.705Z,11.16
2019-04-29T13:59:30.214Z,11.20
2019-04-29T14:01:33.173Z,11.10
2019-04-29T14:03:31.219Z,11.28
2019-04-29T14:05:32.523Z,11.36
2019-04-29T14:07:32.276Z,11.24
2019-04-29T14:09:35.147Z,11.38
2019-04-29T14:11:33.306Z,11.42
2019-04-29T14:13:33.868Z,11.49
2019-04-29T14:15:38.320Z,11.52
2019-04-29T14:17:35.625Z,11.48
2019-04-29T14:19:41.070Z,11.54
2019-04-29T14:21:35.800Z,11.53
2019-04-29T14:23:36.351Z,11.48
2019-04-29T14:25:36.820Z,11.38
2019-04-29T14:27:37.377Z,11.39
2019-04-29T14:29:37.899Z,11.58
2019-04-29T14:31:38.411Z,11.62
2019-04-29T14:33:38.901Z,11.70
2019-04-29T14:35:39.391Z,11.54
2019-04-29T14:37:54.075Z,11.37
2019-04-29T14:39:40.417Z,11.44
2019-04-29T14:41:40.885Z,11.35
2019-04-29T14:43:41.391Z,11.13
2019-04-29T14:45:41.947Z,11.23
2019-04-29T14:47:42.481Z,11.03
2019-04-29T14:49:42.919Z,11.12
2019-04-29T14:51:43.470Z,11.09
2019-04-29T14:53:55.686Z,11.15
2019-04-29T14:55:44.419Z,11.28
2019-04-29T14:57:44.952Z,11.12
2019-04-29T14:59:45.569Z,11.10
2019-04-29T15:01:46.014Z,11.05
2019-04-29T15:03:48.164Z,11.03
2019-04-29T15:05:46.985Z,10.99
2019-04-29T15:07:47.467Z,11.00
2019-04-29T15:09:51.356Z,11.12
2019-04-29T15:11:48.483Z,11.08
2019-04-29T15:13:49.123Z,10.93
2019-04-29T15:16:03.521Z,10.80
2019-04-29T15:17:50.167Z,10.79
2019-04-29T15:19:54.921Z,10.86
2019-04-29T15:21:51.208Z,10.91
2019-04-29T15:23:51.804Z,10.92
2019-04-29T15:25:52.248Z,10.72
2019-04-29T15:27:52.852Z,10.87
2019-04-29T15:29:53.290Z,10.88
2019-04-29T15:31:53.934Z,10.96
2019-04-29T15:33:54.472Z,10.81
2019-04-29T15:35:59.689Z,10.87
2019-04-29T15:37:55.643Z,10.81
2019-04-29T15:39:58.252Z,10.82
2019-04-29T15:41:56.713Z,10.75
2019-04-29T15:44:07.186Z,10.68
2019-04-29T15:45:57.781Z,10.71
2019-04-29T15:47:58.291Z,10.72
2019-04-29T15:50:00.776Z,10.69
2019-04-29T15:51:59.503Z,10.72
2019-04-29T15:54:00.075Z,10.77
2019-04-29T15:58:01.398Z,10.82
2019-04-29T16:00:12.573Z,10.79
2019-04-29T16:02:04.185Z,10.82
2019-04-29T16:04:02.850Z,10.84
2019-04-29T16:08:03.995Z,10.75
2019-04-29T16:10:04.545Z,10.74
2019-04-29T16:12:13.752Z,10.68
2019-04-29T16:14:09.560Z,10.67
2019-04-29T16:16:06.124Z,10.74
2019-04-29T16:18:10.645Z,10.70
2019-04-29T16:20:07.116Z,10.72
2019-04-29T16:22:07.625Z,10.76
2019-04-29T16:24:25.129Z,10.82
2019-04-29T16:26:08.592Z,10.87
2019-04-29T16:28:09.130Z,10.76
2019-04-29T16:30:09.584Z,10.77
2019-04-29T16:32:10.072Z,10.85
2019-04-29T17:18:08.763Z,10.09
2019-04-29T17:20:09.349Z,10.04
2019-04-29T17:22:25.003Z,10.03
2019-04-29T17:24:10.561Z,10.01
2019-04-29T17:26:11.069Z,10.05
2019-04-29T17:35:14.928Z,10.72
